createdAt,value
2023-05-19T03:53:41.176Z,12.05
2023-05-19T03:56:43.921Z,12.19
2023-05-19T03:59:46.133Z,12.22
2023-05-19T04:02:48.792Z,12.21
2023-05-19T04:05:52.102Z,12.12
2023-05-19T04:08:54.234Z,12.15
2023-05-19T04:11:56.679Z,12.13
2023-05-19T04:14:59.800Z,12.11
2023-05-19T04:18:02.336Z,12.30
2023-05-19T04:21:04.771Z,12.19
2023-05-19T04:24:07.398Z,12.18
2023-05-19T04:27:12.232Z,12.21
2023-05-19T04:30:21.949Z,12.31
2023-05-19T04:33:24.651Z,12.35
2023-05-19T04:36:27.513Z,12.50
2023-05-19T04:39:30.234Z,12.59
2023-05-19T04:42:32.944Z,12.59
2023-05-19T04:45:37.544Z,12.67
2023-05-19T04:48:41.054Z,12.79
2023-05-19T04:51:43.218Z,12.85
2023-05-19T04:54:46.339Z,12.94
2023-05-19T04:57:48.816Z,12.94
2023-05-19T05:00:52.305Z,13.04
2023-05-19T05:03:55.334Z,13.01
2023-05-19T05:06:58.295Z,13.15
2023-05-19T05:10:00.863Z,13.19
2023-05-19T05:13:04.048Z,13.28
2023-05-19T05:16:08.762Z,13.34
2023-05-19T05:19:11.601Z,13.63
2023-05-19T09:31:18.375Z,18.17
2023-05-19T09:34:25.034Z,18.17
2023-05-19T09:37:28.433Z,18.17
2023-05-19T09:40:32.692Z,18.24
2023-05-19T09:43:35.396Z,18.31
2023-05-19T09:46:38.294Z,18.34
2023-05-19T09:49:47.178Z,18.30
2023-05-19T09:52:50.272Z,18.35
2023-05-19T09:55:57.820Z,18.38
2023-05-19T09:59:00.799Z,18.49
2023-05-19T10:02:03.617Z,18.65
2023-05-19T10:05:06.814Z,18.99
2023-05-19T10:08:10.412Z,19.25
2023-05-19T10:11:14.788Z,19.44
2023-05-19T10:14:18.203Z,19.68
2023-05-19T10:17:22.584Z,19.97
2023-05-19T10:20:26.889Z,20.04
2023-05-19T10:23:29.323Z,19.77
2023-05-19T10:26:32.599Z,19.46
2023-05-19T10:29:38.259Z,19.38
2023-05-19T10:32:43.568Z,19.53
2023-05-19T10:35:47.259Z,19.74
2023-05-19T10:39:13.162Z,20.00
2023-05-19T10:42:38.091Z,20.45
2023-05-19T10:45:53.347Z,20.46
2023-05-19T10:48:55.978Z,20.16
2023-05-19T10:51:58.288Z,20.02
2023-05-19T10:55:01.067Z,19.81
2023-05-19T10:58:03.717Z,19.77
2023-05-19T11:01:14.657Z,19.90
2023-05-19T11:04:17.288Z,20.21
2023-05-19T11:07:22.849Z,20.63
2023-05-19T11:10:26.841Z,21.47
2023-05-19T11:13:41.158Z,22.77
2023-05-19T11:16:47.496Z,23.83
2023-05-19T11:19:55.169Z,24.30
2023-05-19T11:23:09.132Z,24.39
2023-05-19T11:26:12.865Z,25.35
2023-05-19T11:29:15.359Z,25.59
2023-05-19T11:32:20.097Z,25.29
2023-05-19T11:35:23.210Z,25.85
2023-05-19T11:38:28.098Z,25.89
2023-05-19T11:41:31.023Z,26.31
2023-05-19T11:44:33.475Z,26.53
2023-05-19T11:47:45.991Z,26.90
2023-05-19T11:51:00.426Z,26.60
2023-05-19T11:54:03.308Z,25.14
2023-05-19T11:57:09.836Z,24.16
2023-05-19T12:00:12.636Z,23.49
2023-05-19T12:03:15.320Z,23.99
2023-05-19T12:06:17.844Z,24.08
2023-05-19T12:09:23.673Z,24.32
2023-05-19T12:12:26.111Z,25.39
2023-05-19T12:15:28.723Z,26.29
2023-05-19T12:18:33.658Z,26.77
2023-05-19T12:21:36.291Z,26.95
2023-05-19T12:24:39.000Z,27.76
2023-05-19T12:27:43.332Z,28.19
2023-05-19T12:30:52.548Z,28.26
2023-05-19T12:33:55.834Z,27.69
2023-05-19T12:36:58.040Z,27.32
2023-05-19T12:40:01.987Z,27.55
2023-05-19T12:43:04.460Z,27.33
2023-05-19T12:46:13.621Z,28.35
2023-05-19T12:49:15.952Z,27.97
2023-05-19T12:52:18.704Z,28.94
2023-05-19T12:55:22.092Z,28.61
2023-05-19T12:58:24.484Z,27.77
2023-05-19T13:01:26.712Z,27.09
2023-05-19T13:04:29.171Z,26.70
2023-05-19T13:07:31.318Z,25.56
2023-05-19T13:10:35.867Z,24.91
2023-05-19T13:13:38.136Z,24.29
2023-05-19T13:16:40.670Z,24.04
2023-05-19T13:19:43.074Z,24.00
2023-05-19T13:22:45.719Z,23.86
2023-05-19T13:25:47.851Z,23.90
2023-05-19T13:28:50.342Z,23.84
2023-05-19T13:31:52.513Z,23.92
2023-05-19T13:34:54.905Z,23.97
2023-05-19T13:37:57.444Z,24.02
2023-05-19T13:40:59.881Z,23.78
2023-05-19T13:44:02.073Z,23.70
2023-05-19T13:47:04.763Z,23.52
2023-05-19T13:50:07.389Z,23.09
2023-05-19T13:53:11.410Z,22.79
2023-05-19T13:56:13.655Z,22.59
2023-05-19T13:59:19.239Z,22.45
2023-05-19T14:02:21.389Z,22.28
2023-05-19T14:05:23.902Z,22.36
2023-05-19T14:08:26.241Z,22.34
2023-05-19T14:14:30.543Z,22.53
2023-05-19T14:23:47.615Z,23.18
2023-05-19T14:26:50.587Z,23.08
2023-05-19T14:29:53.085Z,23.15
2023-05-19T14:32:56.059Z,23.12
2023-05-19T14:36:00.217Z,22.94
2023-05-19T14:39:02.870Z,22.84
2023-05-19T14:42:05.657Z,22.75
2023-05-19T14:45:08.556Z,22.83
2023-05-19T14:48:12.005Z,23.23
2023-05-19T14:51:14.256Z,23.65
2023-05-19T14:54:16.653Z,23.92
2023-05-19T14:57:18.806Z,24.09
